Terminal Aerodrome Forecast
Issued by NWS

Home | Current Version | Previous Version | Text Only | Print | Product List | Glossary On
Versions: 1 2 3 4 5 6 7 8 9 10 11 12 13 14 15
387
FTUS43 KJKL 090610 AAB
TAFSME
TAF AMD
KSME 090610Z 0906/1006 30010G20KT 3SM -SN SCT008 BKN012 OVC022
     FM091000 27005G15KT P6SM VCSH SCT010 BKN015 OVC030=

USA.gov is the U.S. government's official web portal to all federal, state and local government web resources and services.